sensor_id;sensor_type;location;lat;lon;timestamp;pressure;altitude;pressure_sealevel;temperature;humidity
73624;BME280;61921;53.226;-1.296;2023-03-01T00:01:02;102446.18;;;5.74;100.00
73624;BME280;61921;53.226;-1.296;2023-03-01T00:03:26;102447.00;;;5.71;100.00
73624;BME280;61921;53.226;-1.296;2023-03-01T00:05:52;102447.04;;;5.71;100.00
73624;BME280;61921;53.226;-1.296;2023-03-01T00:08:17;102447.05;;;5.66;100.00
73624;BME280;61921;53.226;-1.296;2023-03-01T00:10:43;102446.17;;;5.61;100.00
73624;BME280;61921;53.226;-1.296;2023-03-01T00:13:08;102444.33;;;5.58;100.00
73624;BME280;61921;53.226;-1.296;2023-03-01T00:15:38;102449.19;;;5.53;100.00
73624;BME280;61921;53.226;-1.296;2023-03-01T00:17:59;102449.20;;;5.54;100.00
73624;BME280;61921;53.226;-1.296;2023-03-01T00:20:25;102451.14;;;5.53;100.00
73624;BME280;61921;53.226;-1.296;2023-03-01T00:22:50;102448.34;;;5.54;100.00
73624;BME280;61921;53.226;-1.296;2023-03-01T00:25:16;102446.46;;;5.53;100.00
73624;BME280;61921;53.226;-1.296;2023-03-01T00:27:42;102451.26;;;5.58;100.00
73624;BME280;61921;53.226;-1.296;2023-03-01T00:30:08;102451.71;;;5.56;100.00
73624;BME280;61921;53.226;-1.296;2023-03-01T00:32:34;102447.75;;;5.59;100.00
73624;BME280;61921;53.226;-1.296;2023-03-01T00:34:58;102448.89;;;5.66;100.00
73624;BME280;61921;53.226;-1.296;2023-03-01T00:37:24;102454.69;;;5.62;100.00
73624;BME280;61921;53.226;-1.296;2023-03-01T00:39:50;102454.02;;;5.61;100.00
73624;BME280;61921;53.226;-1.296;2023-03-01T00:42:16;102455.73;;;5.58;100.00
73624;BME280;61921;53.226;-1.296;2023-03-01T00:44:41;102454.72;;;5.59;100.00
73624;BME280;61921;53.226;-1.296;2023-03-01T00:47:06;102454.02;;;5.59;100.00
73624;BME280;61921;53.226;-1.296;2023-03-01T00:49:32;102456.19;;;5.50;100.00
73624;BME280;61921;53.226;-1.296;2023-03-01T00:51:57;102456.10;;;5.51;100.00
73624;BME280;61921;53.226;-1.296;2023-03-01T00:54:23;102451.65;;;5.52;100.00
73624;BME280;61921;53.226;-1.296;2023-03-01T00:56:49;102449.48;;;5.45;100.00
73624;BME280;61921;53.226;-1.296;2023-03-01T00:59:14;102448.18;;;5.50;100.00
73624;BME280;61921;53.226;-1.296;2023-03-01T01:01:40;102445.97;;;5.55;100.00
73624;BME280;61921;53.226;-1.296;2023-03-01T01:04:08;102449.32;;;5.64;100.00
73624;BME280;61921;53.226;-1.296;2023-03-01T01:06:33;102442.86;;;5.62;100.00
73624;BME280;61921;53.226;-1.296;2023-03-01T01:08:57;102438.49;;;5.55;100.00
73624;BME280;61921;53.226;-1.296;2023-03-01T01:11:24;102435.85;;;5.65;100.00
73624;BME280;61921;53.226;-1.296;2023-03-01T01:13:48;102431.02;;;5.62;100.00
73624;BME280;61921;53.226;-1.296;2023-03-01T01:16:15;102430.96;;;5.54;100.00
73624;BME280;61921;53.226;-1.296;2023-03-01T01:18:39;102425.50;;;5.54;100.00
73624;BME280;61921;53.226;-1.296;2023-03-01T01:21:06;102424.36;;;5.52;100.00
73624;BME280;61921;53.226;-1.296;2023-03-01T01:23:29;102421.30;;;5.49;100.00
73624;BME280;61921;53.226;-1.296;2023-03-01T01:25:55;102420.89;;;5.57;100.00
73624;BME280;61921;53.226;-1.296;2023-03-01T01:28:21;102414.99;;;5.52;100.00
73624;BME280;61921;53.226;-1.296;2023-03-01T01:30:46;102416.77;;;5.53;100.00
73624;BME280;61921;53.226;-1.296;2023-03-01T01:33:12;102417.30;;;5.57;100.00
73624;BME280;61921;53.226;-1.296;2023-03-01T01:35:37;102415.04;;;5.54;100.00
73624;BME280;61921;53.226;-1.296;2023-03-01T01:38:03;102412.37;;;5.44;100.00
73624;BME280;61921;53.226;-1.296;2023-03-01T01:40:29;102411.67;;;5.45;100.00
73624;BME280;61921;53.226;-1.296;2023-03-01T01:42:54;102409.18;;;5.50;100.00
73624;BME280;61921;53.226;-1.296;2023-03-01T01:45:29;102403.63;;;5.48;100.00
73624;BME280;61921;53.226;-1.296;2023-03-01T01:47:45;102399.53;;;5.59;100.00
73624;BME280;61921;53.226;-1.296;2023-03-01T01:50:16;102399.08;;;5.51;100.00
73624;BME280;61921;53.226;-1.296;2023-03-01T01:52:38;102398.81;;;5.49;100.00
73624;BME280;61921;53.226;-1.296;2023-03-01T01:55:04;102399.99;;;5.51;100.00
73624;BME280;61921;53.226;-1.296;2023-03-01T01:57:30;102395.21;;;5.56;100.00
73624;BME280;61921;53.226;-1.296;2023-03-01T01:59:56;102393.55;;;5.50;100.00
73624;BME280;61921;53.226;-1.296;2023-03-01T02:02:19;102393.71;;;5.53;100.00
73624;BME280;61921;53.226;-1.296;2023-03-01T02:04:45;102385.96;;;5.54;100.00
73624;BME280;61921;53.226;-1.296;2023-03-01T02:07:15;102387.02;;;5.51;100.00
73624;BME280;61921;53.226;-1.296;2023-03-01T02:09:36;102384.39;;;5.57;100.00
73624;BME280;61921;53.226;-1.296;2023-03-01T02:12:02;102383.76;;;5.46;100.00
73624;BME280;61921;53.226;-1.296;2023-03-01T02:14:27;102379.28;;;5.50;100.00
73624;BME280;61921;53.226;-1.296;2023-03-01T02:16:52;102376.18;;;5.53;100.00
73624;BME280;61921;53.226;-1.296;2023-03-01T02:19:26;102376.84;;;5.46;100.00
73624;BME280;61921;53.226;-1.296;2023-03-01T02:21:48;102371.31;;;5.60;100.00
73624;BME280;61921;53.226;-1.296;2023-03-01T02:24:18;102366.68;;;5.67;100.00
73624;BME280;61921;53.226;-1.296;2023-03-01T02:26:40;102363.61;;;5.51;100.00
73624;BME280;61921;53.226;-1.296;2023-03-01T02:29:00;102360.03;;;5.45;100.00
73624;BME280;61921;53.226;-1.296;2023-03-01T02:31:26;102358.83;;;5.35;100.00
73624;BME280;61921;53.226;-1.296;2023-03-01T02:33:51;102357.55;;;5.36;100.00
73624;BME280;61921;53.226;-1.296;2023-03-01T02:36:20;102353.27;;;5.40;100.00
73624;BME280;61921;53.226;-1.296;2023-03-01T02:38:43;102347.26;;;5.44;100.00
73624;BME280;61921;53.226;-1.296;2023-03-01T02:41:09;102348.45;;;5.38;100.00
73624;BME280;61921;53.226;-1.296;2023-03-01T02:43:34;102346.59;;;5.41;100.00
73624;BME280;61921;53.226;-1.296;2023-03-01T02:46:03;102342.61;;;5.33;100.00
73624;BME280;61921;53.226;-1.296;2023-03-01T02:48:25;102341.38;;;5.37;100.00
73624;BME280;61921;53.226;-1.296;2023-03-01T02:51:03;102338.37;;;5.45;100.00
73624;BME280;61921;53.226;-1.296;2023-03-01T02:53:19;102334.33;;;5.38;100.00
73624;BME280;61921;53.226;-1.296;2023-03-01T02:55:42;102330.95;;;5.40;100.00
73624;BME280;61921;53.226;-1.296;2023-03-01T02:58:07;102331.31;;;5.42;100.00
73624;BME280;61921;53.226;-1.296;2023-03-01T03:00:35;102332.23;;;5.37;100.00
73624;BME280;61921;53.226;-1.296;2023-03-01T03:02:58;102330.03;;;5.40;100.00
73624;BME280;61921;53.226;-1.296;2023-03-01T03:05:26;102330.39;;;5.40;100.00
73624;BME280;61921;53.226;-1.296;2023-03-01T03:07:50;102330.89;;;5.35;100.00
73624;BME280;61921;53.226;-1.296;2023-03-01T03:10:17;102336.29;;;5.41;100.00
73624;BME280;61921;53.226;-1.296;2023-03-01T03:12:42;102333.39;;;5.42;100.00
73624;BME280;61921;53.226;-1.296;2023-03-01T03:15:08;102332.12;;;5.46;100.00
73624;BME280;61921;53.226;-1.296;2023-03-01T03:17:31;102328.58;;;5.46;100.00
73624;BME280;61921;53.226;-1.296;2023-03-01T03:19:57;102327.54;;;5.46;100.00
73624;BME280;61921;53.226;-1.296;2023-03-01T03:22:23;102327.50;;;5.47;100.00
73624;BME280;61921;53.226;-1.296;2023-03-01T03:24:48;102323.44;;;5.45;100.00
73624;BME280;61921;53.226;-1.296;2023-03-01T03:27:14;102319.13;;;5.45;100.00
73624;BME280;61921;53.226;-1.296;2023-03-01T03:29:40;102320.67;;;5.41;100.00
73624;BME280;61921;53.226;-1.296;2023-03-01T03:32:05;102318.56;;;5.47;100.00
73624;BME280;61921;53.226;-1.296;2023-03-01T03:34:31;102318.91;;;5.38;100.00
73624;BME280;61921;53.226;-1.296;2023-03-01T03:36:56;102315.54;;;5.40;100.00
73624;BME280;61921;53.226;-1.296;2023-03-01T03:39:22;102314.76;;;5.42;100.00
73624;BME280;61921;53.226;-1.296;2023-03-01T03:41:47;102310.88;;;5.44;100.00
73624;BME280;61921;53.226;-1.296;2023-03-01T03:44:13;102304.55;;;5.49;100.00
73624;BME280;61921;53.226;-1.296;2023-03-01T03:46:38;102307.12;;;5.34;100.00
73624;BME280;61921;53.226;-1.296;2023-03-01T03:49:04;102298.17;;;5.43;100.00
73624;BME280;61921;53.226;-1.296;2023-03-01T03:51:30;102302.26;;;5.36;100.00
73624;BME280;61921;53.226;-1.296;2023-03-01T03:53:55;102294.04;;;5.36;100.00
73624;BME280;61921;53.226;-1.296;2023-03-01T03:56:21;102293.02;;;5.39;100.00
73624;BME280;61921;53.226;-1.296;2023-03-01T03:58:46;102294.65;;;5.37;100.00
73624;BME280;61921;53.226;-1.296;2023-03-01T04:01:12;102290.15;;;5.30;100.00
73624;BME280;61921;53.226;-1.296;2023-03-01T04:03:37;102292.48;;;5.35;100.00
73624;BME280;61921;53.226;-1.296;2023-03-01T04:06:04;102289.49;;;5.35;100.00
73624;BME280;61921;53.226;-1.296;2023-03-01T04:08:29;102292.49;;;5.38;100.00
73624;BME280;61921;53.226;-1.296;2023-03-01T04:10:59;102291.74;;;5.38;100.00
73624;BME280;61921;53.226;-1.296;2023-03-01T04:13:21;102286.28;;;5.52;100.00
73624;BME280;61921;53.226;-1.296;2023-03-01T04:15:46;102277.52;;;5.40;100.00
73624;BME280;61921;53.226;-1.296;2023-03-01T04:18:13;102284.07;;;5.31;100.00
73624;BME280;61921;53.226;-1.296;2023-03-01T04:20:37;102279.03;;;5.23;100.00
73624;BME280;61921;53.226;-1.296;2023-03-01T04:23:04;102279.00;;;5.21;100.00
73624;BME280;61921;53.226;-1.296;2023-03-01T04:25:28;102278.15;;;5.37;100.00
73624;BME280;61921;53.226;-1.296;2023-03-01T04:27:53;102275.73;;;5.21;100.00
73624;BME280;61921;53.226;-1.296;2023-03-01T04:30:19;102275.22;;;5.35;100.00
73624;BME280;61921;53.226;-1.296;2023-03-01T04:32:44;102279.25;;;5.35;100.00
73624;BME280;61921;53.226;-1.296;2023-03-01T04:35:10;102275.56;;;5.38;100.00
73624;BME280;61921;53.226;-1.296;2023-03-01T04:37:35;102278.88;;;5.26;100.00
73624;BME280;61921;53.226;-1.296;2023-03-01T04:40:04;102277.72;;;5.29;100.00
73624;BME280;61921;53.226;-1.296;2023-03-01T04:42:27;102275.30;;;5.24;100.00
73624;BME280;61921;53.226;-1.296;2023-03-01T04:44:52;102275.65;;;5.34;100.00
73624;BME280;61921;53.226;-1.296;2023-03-01T04:47:18;102271.57;;;5.35;100.00
73624;BME280;61921;53.226;-1.296;2023-03-01T04:49:44;102274.79;;;5.30;100.00
73624;BME280;61921;53.226;-1.296;2023-03-01T04:52:09;102273.25;;;5.29;100.00
73624;BME280;61921;53.226;-1.296;2023-03-01T04:54:35;102272.60;;;5.32;100.00
73624;BME280;61921;53.226;-1.296;2023-03-01T04:57:00;102268.98;;;5.39;100.00
73624;BME280;61921;53.226;-1.296;2023-03-01T04:59:26;102267.95;;;5.29;100.00
73624;BME280;61921;53.226;-1.296;2023-03-01T05:01:52;102263.34;;;5.35;100.00
73624;BME280;61921;53.226;-1.296;2023-03-01T05:04:17;102266.80;;;5.21;100.00
73624;BME280;61921;53.226;-1.296;2023-03-01T05:06:42;102263.22;;;5.24;100.00
73624;BME280;61921;53.226;-1.296;2023-03-01T05:09:07;102256.63;;;5.31;100.00
73624;BME280;61921;53.226;-1.296;2023-03-01T05:11:33;102257.27;;;5.31;100.00
73624;BME280;61921;53.226;-1.296;2023-03-01T05:13:59;102254.95;;;5.32;100.00
73624;BME280;61921;53.226;-1.296;2023-03-01T05:16:24;102256.48;;;5.32;100.00
73624;BME280;61921;53.226;-1.296;2023-03-01T05:18:49;102255.52;;;5.36;100.00
73624;BME280;61921;53.226;-1.296;2023-03-01T05:21:16;102253.87;;;5.30;100.00
73624;BME280;61921;53.226;-1.296;2023-03-01T05:23:41;102252.88;;;5.40;100.00
73624;BME280;61921;53.226;-1.296;2023-03-01T05:26:07;102254.13;;;5.24;100.00
73624;BME280;61921;53.226;-1.296;2023-03-01T05:28:32;102257.43;;;5.18;100.00
73624;BME280;61921;53.226;-1.296;2023-03-01T05:30:58;102258.61;;;5.30;100.00
73624;BME280;61921;53.226;-1.296;2023-03-01T05:33:24;102255.47;;;5.28;100.00
73624;BME280;61921;53.226;-1.296;2023-03-01T05:35:50;102255.24;;;5.18;100.00
73624;BME280;61921;53.226;-1.296;2023-03-01T05:38:16;102255.50;;;5.17;100.00
73624;BME280;61921;53.226;-1.296;2023-03-01T05:40:40;102259.97;;;5.15;100.00
73624;BME280;61921;53.226;-1.296;2023-03-01T05:43:06;102260.91;;;5.18;100.00
73624;BME280;61921;53.226;-1.296;2023-03-01T05:45:32;102260.43;;;5.11;100.00
73624;BME280;61921;53.226;-1.296;2023-03-01T05:47:57;102257.28;;;5.16;100.00
73624;BME280;61921;53.226;-1.296;2023-03-01T05:50:24;102252.17;;;5.27;100.00
73624;BME280;61921;53.226;-1.296;2023-03-01T05:52:49;102248.84;;;5.34;100.00
73624;BME280;61921;53.226;-1.296;2023-03-01T05:55:13;102249.72;;;5.50;100.00
73624;BME280;61921;53.226;-1.296;2023-03-01T05:57:38;102251.16;;;5.35;100.00
73624;BME280;61921;53.226;-1.296;2023-03-01T06:00:04;102245.87;;;5.25;100.00
73624;BME280;61921;53.226;-1.296;2023-03-01T06:02:29;102248.39;;;5.41;100.00
73624;BME280;61921;53.226;-1.296;2023-03-01T06:04:55;102252.75;;;5.26;100.00
73624;BME280;61921;53.226;-1.296;2023-03-01T06:07:20;102254.64;;;5.17;100.00
73624;BME280;61921;53.226;-1.296;2023-03-01T06:09:45;102253.90;;;5.07;100.00
73624;BME280;61921;53.226;-1.296;2023-03-01T06:12:11;102254.55;;;5.08;100.00
73624;BME280;61921;53.226;-1.296;2023-03-01T06:14:36;102258.95;;;5.04;100.00
73624;BME280;61921;53.226;-1.296;2023-03-01T06:17:03;102254.63;;;4.98;100.00
73624;BME280;61921;53.226;-1.296;2023-03-01T06:19:28;102246.25;;;5.15;100.00
73624;BME280;61921;53.226;-1.296;2023-03-01T06:21:53;102249.50;;;5.12;100.00
73624;BME280;61921;53.226;-1.296;2023-03-01T06:24:19;102245.59;;;5.10;100.00
73624;BME280;61921;53.226;-1.296;2023-03-01T06:26:45;102242.54;;;5.00;100.00
73624;BME280;61921;53.226;-1.296;2023-03-01T06:29:10;102247.02;;;4.99;100.00
73624;BME280;61921;53.226;-1.296;2023-03-01T06:31:36;102250.89;;;4.94;100.00
73624;BME280;61921;53.226;-1.296;2023-03-01T06:34:01;102252.27;;;5.04;100.00
73624;BME280;61921;53.226;-1.296;2023-03-01T06:36:27;102256.97;;;5.03;100.00
73624;BME280;61921;53.226;-1.296;2023-03-01T06:38:52;102255.76;;;5.05;100.00
73624;BME280;61921;53.226;-1.296;2023-03-01T06:41:18;102257.46;;;5.17;100.00
73624;BME280;61921;53.226;-1.296;2023-03-01T06:43:44;102256.51;;;5.02;100.00
73624;BME280;61921;53.226;-1.296;2023-03-01T06:46:10;102257.89;;;5.02;100.00
73624;BME280;61921;53.226;-1.296;2023-03-01T06:48:35;102258.06;;;5.12;100.00
73624;BME280;61921;53.226;-1.296;2023-03-01T06:51:00;102260.51;;;5.10;100.00
73624;BME280;61921;53.226;-1.296;2023-03-01T06:53:26;102267.04;;;5.03;100.00
73624;BME280;61921;53.226;-1.296;2023-03-01T06:55:54;102266.76;;;5.02;100.00
73624;BME280;61921;53.226;-1.296;2023-03-01T06:58:17;102264.49;;;5.03;100.00
73624;BME280;61921;53.226;-1.296;2023-03-01T07:00:43;102262.83;;;4.95;100.00
73624;BME280;61921;53.226;-1.296;2023-03-01T07:03:08;102253.22;;;4.96;100.00
73624;BME280;61921;53.226;-1.296;2023-03-01T07:05:34;102250.37;;;4.93;100.00
73624;BME280;61921;53.226;-1.296;2023-03-01T07:07:59;102253.64;;;4.90;100.00
73624;BME280;61921;53.226;-1.296;2023-03-01T07:10:24;102257.33;;;5.02;100.00
73624;BME280;61921;53.226;-1.296;2023-03-01T07:12:50;102255.16;;;4.93;100.00
73624;BME280;61921;53.226;-1.296;2023-03-01T07:15:15;102253.62;;;4.97;100.00
73624;BME280;61921;53.226;-1.296;2023-03-01T07:17:42;102256.17;;;5.03;100.00
73624;BME280;61921;53.226;-1.296;2023-03-01T07:20:07;102253.97;;;4.95;100.00
73624;BME280;61921;53.226;-1.296;2023-03-01T07:22:31;102249.38;;;5.04;100.00
73624;BME280;61921;53.226;-1.296;2023-03-01T07:24:56;102250.83;;;5.01;100.00
73624;BME280;61921;53.226;-1.296;2023-03-01T07:27:22;102250.32;;;5.07;100.00
73624;BME280;61921;53.226;-1.296;2023-03-01T07:29:48;102245.92;;;5.10;100.00
73624;BME280;61921;53.226;-1.296;2023-03-01T07:32:13;102249.09;;;5.08;100.00
73624;BME280;61921;53.226;-1.296;2023-03-01T07:34:39;102249.44;;;5.06;100.00
73624;BME280;61921;53.226;-1.296;2023-03-01T07:37:04;102253.51;;;5.11;100.00
73624;BME280;61921;53.226;-1.296;2023-03-01T07:39:30;102247.53;;;5.11;100.00
73624;BME280;61921;53.226;-1.296;2023-03-01T07:41:55;102241.34;;;5.12;100.00
73624;BME280;61921;53.226;-1.296;2023-03-01T07:44:21;102236.98;;;5.17;100.00
73624;BME280;61921;53.226;-1.296;2023-03-01T07:46:46;102235.89;;;5.29;100.00
73624;BME280;61921;53.226;-1.296;2023-03-01T07:49:12;102237.44;;;5.23;100.00
73624;BME280;61921;53.226;-1.296;2023-03-01T07:51:37;102236.90;;;5.18;100.00
73624;BME280;61921;53.226;-1.296;2023-03-01T07:54:03;102238.39;;;5.22;100.00
73624;BME280;61921;53.226;-1.296;2023-03-01T07:56:29;102246.33;;;5.33;100.00
73624;BME280;61921;53.226;-1.296;2023-03-01T07:58:54;102244.96;;;5.41;100.00
73624;BME280;61921;53.226;-1.296;2023-03-01T08:01:20;102241.45;;;5.45;100.00
73624;BME280;61921;53.226;-1.296;2023-03-01T08:03:45;102240.81;;;5.33;100.00
73624;BME280;61921;53.226;-1.296;2023-03-01T08:06:12;102244.76;;;5.34;100.00
73624;BME280;61921;53.226;-1.296;2023-03-01T08:08:37;102243.89;;;5.39;100.00
73624;BME280;61921;53.226;-1.296;2023-03-01T08:11:03;102242.16;;;5.35;100.00
73624;BME280;61921;53.226;-1.296;2023-03-01T08:13:28;102241.67;;;5.40;100.00
73624;BME280;61921;53.226;-1.296;2023-03-01T08:15:53;102243.57;;;5.37;100.00
73624;BME280;61921;53.226;-1.296;2023-03-01T08:18:19;102245.66;;;5.46;100.00
73624;BME280;61921;53.226;-1.296;2023-03-01T08:20:44;102244.92;;;5.47;100.00
73624;BME280;61921;53.226;-1.296;2023-03-01T08:23:09;102248.39;;;5.46;100.00
73624;BME280;61921;53.226;-1.296;2023-03-01T08:25:34;102251.55;;;5.54;100.00
73624;BME280;61921;53.226;-1.296;2023-03-01T08:28:00;102257.86;;;5.67;100.00
73624;BME280;61921;53.226;-1.296;2023-03-01T08:30:26;102260.79;;;5.58;100.00
73624;BME280;61921;53.226;-1.296;2023-03-01T08:32:52;102262.29;;;5.73;100.00
73624;BME280;61921;53.226;-1.296;2023-03-01T08:35:17;102257.65;;;5.75;100.00
73624;BME280;61921;53.226;-1.296;2023-03-01T08:37:43;102251.88;;;5.84;100.00
73624;BME280;61921;53.226;-1.296;2023-03-01T08:40:09;102252.49;;;5.93;100.00
73624;BME280;61921;53.226;-1.296;2023-03-01T08:42:33;102249.91;;;6.07;100.00
73624;BME280;61921;53.226;-1.296;2023-03-01T08:44:59;102246.42;;;5.92;100.00
73624;BME280;61921;53.226;-1.296;2023-03-01T08:47:24;102243.06;;;5.96;100.00
73624;BME280;61921;53.226;-1.296;2023-03-01T08:49:50;102254.85;;;6.14;100.00
73624;BME280;61921;53.226;-1.296;2023-03-01T08:52:15;102256.55;;;6.12;100.00
73624;BME280;61921;53.226;-1.296;2023-03-01T08:54:40;102254.62;;;6.11;100.00
73624;BME280;61921;53.226;-1.296;2023-03-01T08:57:06;102249.79;;;6.09;100.00
73624;BME280;61921;53.226;-1.296;2023-03-01T08:59:31;102249.85;;;6.12;100.00
73624;BME280;61921;53.226;-1.296;2023-03-01T09:01:56;102251.10;;;6.24;100.00
73624;BME280;61921;53.226;-1.296;2023-03-01T09:04:22;102251.53;;;6.18;100.00
73624;BME280;61921;53.226;-1.296;2023-03-01T09:06:48;102251.44;;;6.04;100.00
73624;BME280;61921;53.226;-1.296;2023-03-01T09:09:14;102258.75;;;6.04;100.00
73624;BME280;61921;53.226;-1.296;2023-03-01T09:11:39;102257.70;;;6.09;100.00
73624;BME280;61921;53.226;-1.296;2023-03-01T09:14:05;102252.81;;;6.07;100.00
73624;BME280;61921;53.226;-1.296;2023-03-01T09:16:30;102254.12;;;6.01;100.00
73624;BME280;61921;53.226;-1.296;2023-03-01T09:18:56;102256.63;;;6.07;100.00
73624;BME280;61921;53.226;-1.296;2023-03-01T09:21:23;102254.30;;;6.23;100.00
73624;BME280;61921;53.226;-1.296;2023-03-01T09:23:47;102250.15;;;6.20;100.00
73624;BME280;61921;53.226;-1.296;2023-03-01T09:26:15;102246.81;;;6.22;100.00
73624;BME280;61921;53.226;-1.296;2023-03-01T09:28:38;102241.89;;;6.34;100.00
73624;BME280;61921;53.226;-1.296;2023-03-01T09:31:04;102231.68;;;6.30;100.00
73624;BME280;61921;53.226;-1.296;2023-03-01T09:33:30;102223.85;;;6.28;100.00
73624;BME280;61921;53.226;-1.296;2023-03-01T09:35:58;102219.81;;;6.31;100.00
73624;BME280;61921;53.226;-1.296;2023-03-01T09:38:20;102217.78;;;6.47;100.00
73624;BME280;61921;53.226;-1.296;2023-03-01T09:40:46;102214.02;;;6.51;100.00
73624;BME280;61921;53.226;-1.296;2023-03-01T09:43:18;102212.25;;;6.63;100.00
73624;BME280;61921;53.226;-1.296;2023-03-01T09:45:39;102210.87;;;6.73;100.00
73624;BME280;61921;53.226;-1.296;2023-03-01T09:48:03;102209.51;;;6.66;100.00
73624;BME280;61921;53.226;-1.296;2023-03-01T09:50:33;102203.81;;;6.54;100.00
73624;BME280;61921;53.226;-1.296;2023-03-01T09:53:00;102199.94;;;6.61;100.00
73624;BME280;61921;53.226;-1.296;2023-03-01T09:55:25;102200.63;;;6.70;100.00
73624;BME280;61921;53.226;-1.296;2023-03-01T09:57:49;102199.68;;;6.65;100.00
73624;BME280;61921;53.226;-1.296;2023-03-01T10:00:20;102194.68;;;6.81;100.00
73624;BME280;61921;53.226;-1.296;2023-03-01T10:02:41;102194.05;;;6.80;100.00
73624;BME280;61921;53.226;-1.296;2023-03-01T10:05:11;102194.77;;;6.92;100.00
73624;BME280;61921;53.226;-1.296;2023-03-01T10:07:32;102192.13;;;7.06;100.00
73624;BME280;61921;53.226;-1.296;2023-03-01T10:09:52;102193.63;;;6.88;100.00
73624;BME280;61921;53.226;-1.296;2023-03-01T10:12:21;102187.68;;;6.73;100.00
73624;BME280;61921;53.226;-1.296;2023-03-01T10:14:51;102187.57;;;6.96;100.00
73624;BME280;61921;53.226;-1.296;2023-03-01T10:17:12;102185.42;;;7.15;100.00
73624;BME280;61921;53.226;-1.296;2023-03-01T10:19:38;102180.07;;;7.65;100.00
73624;BME280;61921;53.226;-1.296;2023-03-01T10:22:05;102176.78;;;7.80;99.44
73624;BME280;61921;53.226;-1.296;2023-03-01T10:24:25;102175.55;;;7.77;99.31
73624;BME280;61921;53.226;-1.296;2023-03-01T10:26:55;102172.61;;;7.30;100.00
73624;BME280;61921;53.226;-1.296;2023-03-01T10:29:16;102170.35;;;7.28;100.00
73624;BME280;61921;53.226;-1.296;2023-03-01T10:31:44;102171.31;;;7.13;100.00
73624;BME280;61921;53.226;-1.296;2023-03-01T10:34:11;102173.33;;;6.89;100.00
73624;BME280;61921;53.226;-1.296;2023-03-01T10:36:33;102170.72;;;6.89;100.00
73624;BME280;61921;53.226;-1.296;2023-03-01T10:38:59;102173.64;;;6.96;100.00
73624;BME280;61921;53.226;-1.296;2023-03-01T10:41:26;102166.13;;;7.14;100.00
73624;BME280;61921;53.226;-1.296;2023-03-01T10:43:51;102162.07;;;7.44;100.00
73624;BME280;61921;53.226;-1.296;2023-03-01T10:46:22;102159.83;;;7.74;100.00
73624;BME280;61921;53.226;-1.296;2023-03-01T10:48:41;102158.39;;;7.63;100.00
73624;BME280;61921;53.226;-1.296;2023-03-01T10:51:07;102155.32;;;7.66;100.00
73624;BME280;61921;53.226;-1.296;2023-03-01T10:53:33;102154.07;;;7.28;100.00
73624;BME280;61921;53.226;-1.296;2023-03-01T10:55:59;102153.01;;;7.17;100.00
73624;BME280;61921;53.226;-1.296;2023-03-01T10:58:23;102157.75;;;6.87;100.00
73624;BME280;61921;53.226;-1.296;2023-03-01T11:00:50;102159.38;;;6.86;100.00
73624;BME280;61921;53.226;-1.296;2023-03-01T11:03:14;102158.96;;;6.92;100.00
73624;BME280;61921;53.226;-1.296;2023-03-01T11:05:51;102158.85;;;6.80;100.00
73624;BME280;61921;53.226;-1.296;2023-03-01T11:08:04;102154.24;;;6.75;100.00
73624;BME280;61921;53.226;-1.296;2023-03-01T11:10:31;102149.58;;;6.89;100.00
73624;BME280;61921;53.226;-1.296;2023-03-01T11:13:06;102145.29;;;7.21;100.00
73624;BME280;61921;53.226;-1.296;2023-03-01T11:15:24;102134.52;;;7.38;100.00
73624;BME280;61921;53.226;-1.296;2023-03-01T11:17:46;102131.14;;;7.49;100.00
73624;BME280;61921;53.226;-1.296;2023-03-01T11:20:20;102124.16;;;7.72;100.00
73624;BME280;61921;53.226;-1.296;2023-03-01T11:22:41;102122.67;;;7.88;100.00
73624;BME280;61921;53.226;-1.296;2023-03-01T11:25:02;102116.95;;;8.17;100.00
73624;BME280;61921;53.226;-1.296;2023-03-01T11:27:30;102119.76;;;8.13;100.00
73624;BME280;61921;53.226;-1.296;2023-03-01T11:29:57;102112.67;;;7.95;100.00
73624;BME280;61921;53.226;-1.296;2023-03-01T11:32:21;102113.33;;;7.96;100.00
73624;BME280;61921;53.226;-1.296;2023-03-01T11:34:48;102108.54;;;7.92;100.00
73624;BME280;61921;53.226;-1.296;2023-03-01T11:37:16;102110.50;;;7.91;99.85
73624;BME280;61921;53.226;-1.296;2023-03-01T11:39:38;102108.24;;;8.09;98.07
73624;BME280;61921;53.226;-1.296;2023-03-01T11:42:05;102105.09;;;8.26;94.75
73624;BME280;61921;53.226;-1.296;2023-03-01T11:44:28;102100.32;;;8.60;93.87
73624;BME280;61921;53.226;-1.296;2023-03-01T11:49:37;102104.81;;;8.26;95.27
73624;BME280;61921;53.226;-1.296;2023-03-01T11:51:50;102104.54;;;8.12;97.05
73624;BME280;61921;53.226;-1.296;2023-03-01T11:54:17;102100.94;;;7.99;96.62
73624;BME280;61921;53.226;-1.296;2023-03-01T11:56:37;102097.14;;;7.89;96.71
73624;BME280;61921;53.226;-1.296;2023-03-01T12:01:32;102088.31;;;7.99;96.16
73624;BME280;61921;53.226;-1.296;2023-03-01T12:04:03;102082.83;;;8.37;96.38
73624;BME280;61921;53.226;-1.296;2023-03-01T12:06:30;102078.80;;;8.39;96.09
73624;BME280;61921;53.226;-1.296;2023-03-01T12:08:45;102076.10;;;8.56;95.80
73624;BME280;61921;53.226;-1.296;2023-03-01T12:11:17;102075.00;;;8.64;94.38
73624;BME280;61921;53.226;-1.296;2023-03-01T12:13:51;102073.89;;;8.10;93.22
73624;BME280;61921;53.226;-1.296;2023-03-01T12:16:10;102074.63;;;8.13;93.88
73624;BME280;61921;53.226;-1.296;2023-03-01T12:20:56;102075.50;;;8.12;94.42
73624;BME280;61921;53.226;-1.296;2023-03-01T12:23:28;102074.49;;;7.88;93.70
73624;BME280;61921;53.226;-1.296;2023-03-01T12:25:41;102071.34;;;8.05;94.61
73624;BME280;61921;53.226;-1.296;2023-03-01T12:28:16;102067.74;;;8.06;94.61
73624;BME280;61921;53.226;-1.296;2023-03-01T12:30:37;102064.34;;;8.20;94.32
73624;BME280;61921;53.226;-1.296;2023-03-01T12:33:04;102051.82;;;8.49;92.49
73624;BME280;61921;53.226;-1.296;2023-03-01T12:35:36;102051.14;;;8.95;91.44
73624;BME280;61921;53.226;-1.296;2023-03-01T12:37:54;102049.22;;;9.32;89.65